Time;durP1;ratioP1;P1;durP2;ratioP2;P2;SDS_P1;SDS_P2;PMS_P1;PMS_P2;Temp;Humidity;BMP_temperature;BMP_pressure;BME280_temperature;BME280_humidity;BME280_pressure;Samples;Min_cycle;Max_cycle;Signal;HPM_P1;HPM_P2
2023/07/18 00:01:25;;;;;;;0.90;0.88;;;;;;;24.06;100.00;100132.59;6127351;23;20013;-92
2023/07/18 00:03:51;;;;;;;0.80;0.80;;;;;;;24.06;100.00;100135.44;6152707;23;20013;-93
2023/07/18 00:06:18;;;;;;;1.67;1.48;;;;;;;24.06;100.00;100135.44;6127187;23;20009;-91
2023/07/18 00:08:44;;;;;;;0.73;0.60;;;;;;;24.17;100.00;100150.84;6126963;23;20116;-91
2023/07/18 00:11:10;;;;;;;2.15;1.42;;;;;;;23.94;100.00;100111.34;6152370;23;20096;-92
2023/07/18 00:13:35;;;;;;;2.38;0.98;;;;;;;23.98;100.00;100111.06;6128222;23;20036;-92
2023/07/18 00:16:01;;;;;;;2.40;0.88;;;;;;;23.90;100.00;100118.59;6125650;23;20318;-92
2023/07/18 00:18:26;;;;;;;0.98;0.95;;;;;;;24.00;100.00;100136.78;6128169;23;20017;-92
2023/07/18 00:20:52;;;;;;;1.15;0.80;;;;;;;23.95;100.00;100132.72;6126714;23;20450;-91
2023/07/18 00:23:18;;;;;;;1.45;0.98;;;;;;;23.95;100.00;100132.72;6103191;23;20028;-91
2023/07/18 00:25:44;;;;;;;1.10;0.90;;;;;;;23.99;100.00;100132.41;6152451;23;20036;-92
2023/07/18 00:28:09;;;;;;;0.50;0.50;;;;;;;24.06;100.00;100137.53;6152855;23;20013;-92
2023/07/18 00:30:35;;;;;;;1.85;0.85;;;;;;;24.20;100.00;100155.47;6151753;23;20020;-91
2023/07/18 00:33:01;;;;;;;1.65;0.95;;;;;;;24.30;100.00;100153.84;6151398;23;20764;-91
2023/07/18 00:35:27;;;;;;;1.00;0.98;;;;;;;24.29;100.00;100149.47;6124473;23;20395;-92
2023/07/18 00:37:53;;;;;;;1.67;0.95;;;;;;;24.35;100.00;100153.00;6151613;23;20091;-91
2023/07/18 00:40:18;;;;;;;1.33;0.85;;;;;;;24.32;100.00;100156.91;6152315;23;20090;-91
2023/07/18 00:42:46;;;;;;;0.57;0.57;;;;;;;24.41;100.00;100176.41;6102516;23;20677;-92
2023/07/18 00:45:12;;;;;;;1.52;1.42;;;;;;;24.28;100.00;100157.19;6103142;23;20028;-91
2023/07/18 00:47:44;;;;;;;0.77;0.52;;;;;;;24.28;100.00;100160.03;6152966;23;20019;-92
2023/07/18 00:50:16;;;;;;;1.08;0.90;;;;;;;24.09;100.00;100133.63;6126722;23;20132;-91
2023/07/18 00:52:49;;;;;;;0.75;0.50;;;;;;;24.24;100.00;100158.78;6102448;23;20359;-92
2023/07/18 00:55:16;;;;;;;1.80;1.27;;;;;;;23.95;100.00;100115.72;6127725;23;20060;-91
2023/07/18 00:57:42;;;;;;;0.85;0.70;;;;;;;24.07;100.00;100153.97;6127565;23;20459;-92
2023/07/18 01:00:11;;;;;;;1.90;1.23;;;;;;;24.01;100.00;100150.44;6127263;23;20619;-91
2023/07/18 01:05:19;;;;;;;0.70;0.70;;;;;;;23.68;100.00;100116.69;6134500;23;20029;-90
2023/07/18 01:07:45;;;;;;;1.00;0.80;;;;;;;23.66;100.00;100113.63;6073640;23;20400;-89
2023/07/18 01:10:25;;;;;;;1.00;1.00;;;;;;;23.66;100.00;100141.94;6096318;23;20098;-90
2023/07/18 01:12:55;;;;;;;1.45;1.08;;;;;;;23.62;100.00;100113.13;6070160;23;20018;-89
2023/07/18 01:15:23;;;;;;;3.17;0.75;;;;;;;23.36;100.00;100099.38;6074095;23;20136;-90
2023/07/18 01:17:49;;;;;;;1.30;1.15;;;;;;;23.35;100.00;100095.00;6075082;23;20017;-90
2023/07/18 01:20:18;;;;;;;1.00;0.90;;;;;;;23.32;100.00;100106.63;6097059;23;20023;-94
2023/07/18 01:22:53;;;;;;;0.60;0.50;;;;;;;23.24;100.00;100084.53;6075441;23;20096;-93
2023/07/18 01:25:19;;;;;;;1.85;1.35;;;;;;;23.28;100.00;100083.47;6099192;23;20518;-93
2023/07/18 01:27:46;;;;;;;1.52;0.80;;;;;;;23.21;100.00;100085.56;6100258;23;20025;-94
2023/07/18 01:30:12;;;;;;;1.15;0.98;;;;;;;23.16;100.00;100074.28;6098249;23;20033;-93
2023/07/18 01:32:38;;;;;;;0.73;0.70;;;;;;;23.05;100.00;100060.97;6075220;23;20021;-94
2023/07/18 01:35:05;;;;;;;1.40;1.08;;;;;;;23.04;100.00;100079.25;6073356;23;20404;-93
2023/07/18 01:37:32;;;;;;;2.20;1.75;;;;;;;22.88;100.00;100051.81;6099359;23;20025;-94
2023/07/18 01:39:59;;;;;;;1.08;0.93;;;;;;;22.89;100.00;100064.66;6100495;23;20013;-94
2023/07/18 01:42:25;;;;;;;2.22;1.33;;;;;;;23.02;100.00;100083.88;6098876;23;20014;-96
2023/07/18 01:44:51;;;;;;;1.27;1.20;;;;;;;23.17;100.00;100107.72;6075175;23;20012;-94
2023/07/18 01:47:16;;;;;;;0.95;0.95;;;;;;;23.11;100.00;100104.16;6074762;23;20029;-90
2023/07/18 01:49:42;;;;;;;1.73;1.20;;;;;;;23.16;100.00;100117.50;6073954;23;20021;-90
2023/07/18 01:52:07;;;;;;;5.13;1.50;;;;;;;23.19;100.00;100119.28;6073472;23;20084;-90
2023/07/18 01:54:33;;;;;;;1.50;1.30;;;;;;;23.20;100.00;100129.31;6097849;23;20032;-89
2023/07/18 01:56:59;;;;;;;2.67;1.20;;;;;;;23.21;100.00;100142.16;6098183;23;20359;-90
2023/07/18 01:59:25;;;;;;;1.50;1.00;;;;;;;23.04;100.00;100104.72;6074460;23;20010;-90
2023/07/18 02:01:51;;;;;;;1.20;1.08;;;;;;;23.17;100.00;100127.50;6076506;23;20374;-91
2023/07/18 02:04:18;;;;;;;0.90;0.85;;;;;;;22.93;100.00;100087.78;6121226;23;20014;-90
2023/07/18 02:06:43;;;;;;;2.05;1.27;;;;;;;22.98;100.00;100103.97;6097886;23;20076;-90
2023/07/18 02:09:10;;;;;;;1.38;1.00;;;;;;;22.84;100.00;100087.31;6098589;23;20009;-89
2023/07/18 02:11:35;;;;;;;1.05;0.63;;;;;;;22.83;100.00;100095.03;6100282;23;20430;-90
2023/07/18 02:14:03;;;;;;;0.20;0.20;;;;;;;22.77;100.00;100094.28;6099276;23;20009;-90
2023/07/18 02:16:29;;;;;;;5.88;2.40;;;;;;;22.64;100.00;100086.34;6099041;23;20017;-90
2023/07/18 02:18:56;;;;;;;0.98;0.85;;;;;;;22.87;100.00;100143.59;6099428;23;20009;-89
2023/07/18 02:21:22;;;;;;;2.15;1.95;;;;;;;22.87;100.00;100146.44;6099196;23;20017;-90
2023/07/18 02:23:48;;;;;;;0.65;0.60;;;;;;;22.80;100.00;100146.97;6099930;23;20301;-90
2023/07/18 02:26:14;;;;;;;3.50;1.48;;;;;;;22.75;100.00;100136.44;6099526;23;20005;-91
2023/07/18 02:28:39;;;;;;;2.05;1.67;;;;;;;22.62;100.00;100136.97;6100350;23;20021;-90
2023/07/18 02:31:05;;;;;;;0.98;0.98;;;;;;;22.53;100.00;100134.41;6099335;23;20064;-90
2023/07/18 02:33:31;;;;;;;0.75;0.73;;;;;;;22.60;100.00;100141.63;6100506;23;20001;-89
2023/07/18 02:35:56;;;;;;;0.65;0.65;;;;;;;22.49;100.00;100127.47;6123327;23;20550;-89
2023/07/18 02:38:23;;;;;;;1.55;1.25;;;;;;;22.55;100.00;100136.72;6099479;23;20010;-90
2023/07/18 02:40:50;;;;;;;0.80;0.77;;;;;;;22.44;100.00;100129.06;6126089;23;20455;-90
2023/07/18 02:43:16;;;;;;;1.38;1.05;;;;;;;22.67;100.00;100166.53;6099393;23;20021;-90
2023/07/18 02:45:41;;;;;;;4.60;0.93;;;;;;;22.67;100.00;100183.47;6098703;23;20018;-90
2023/07/18 02:48:07;;;;;;;2.05;1.17;;;;;;;22.65;100.00;100181.16;6099564;23;20014;-89
2023/07/18 02:50:34;;;;;;;0.43;0.40;;;;;;;22.60;100.00;100161.41;6121808;23;20021;-89
2023/07/18 02:53:01;;;;;;;0.80;0.70;;;;;;;22.61;100.00;100154.44;6098920;23;20013;-90
2023/07/18 02:55:27;;;;;;;0.65;0.65;;;;;;;22.77;100.00;100188.38;6099776;23;20390;-90
2023/07/18 02:57:53;;;;;;;1.05;0.85;;;;;;;22.72;100.00;100140.31;6124216;23;20346;-90
2023/07/18 03:00:19;;;;;;;1.67;0.85;;;;;;;22.91;100.00;100178.06;6098891;23;20092;-91
2023/07/18 03:02:48;;;;;;;0.65;0.63;;;;;;;22.89;100.00;100179.88;6124622;23;20018;-90
2023/07/18 03:05:15;;;;;;;0.80;0.80;;;;;;;22.86;100.00;100181.66;6098351;23;20018;-90
2023/07/18 03:07:41;;;;;;;1.15;1.13;;;;;;;22.54;100.00;100138.00;6099878;23;20033;-90
2023/07/18 03:10:07;;;;;;;1.13;1.02;;;;;;;22.77;100.00;100177.06;6099275;23;20044;-90
2023/07/18 03:12:33;;;;;;;1.23;0.70;;;;;;;22.65;100.00;100169.06;6119674;23;20466;-93
2023/07/18 03:14:59;;;;;;;2.45;1.08;;;;;;;22.79;100.00;100190.69;6124779;23;20002;-95
2023/07/18 03:17:24;;;;;;;0.80;0.63;;;;;;;22.56;100.00;100183.50;6101254;23;20018;-93
2023/07/18 03:19:50;;;;;;;1.67;1.30;;;;;;;22.69;100.00;100195.84;6100658;23;20017;-93
2023/07/18 03:22:16;;;;;;;0.85;0.85;;;;;;;22.73;100.00;100199.16;6100484;23;20020;-94
2023/07/18 03:24:42;;;;;;;0.93;0.82;;;;;;;22.50;100.00;100177.84;6124676;23;20013;-95
2023/07/18 03:27:07;;;;;;;1.13;0.80;;;;;;;22.72;100.00;100205.34;6101274;23;20025;-94
2023/07/18 03:29:33;;;;;;;1.25;0.95;;;;;;;22.76;100.00;100209.47;6126915;23;20017;-90
2023/07/18 03:32:00;;;;;;;1.38;1.30;;;;;;;22.44;100.00;100159.38;6099396;23;20013;-90
2023/07/18 03:34:28;;;;;;;0.88;0.68;;;;;;;22.64;100.00;100184.53;6098136;23;20005;-91
2023/07/18 03:36:54;;;;;;;0.80;0.73;;;;;;;22.63;100.00;100180.91;6098124;23;20387;-90
2023/07/18 03:39:20;;;;;;;0.60;0.60;;;;;;;22.58;100.00;100163.97;6097205;23;20021;-90
2023/07/18 03:41:45;;;;;;;0.90;0.88;;;;;;;22.79;100.00;100202.00;6099120;23;20324;-89
2023/07/18 03:44:11;;;;;;;0.88;0.75;;;;;;;22.69;100.00;100189.41;6126689;23;20017;-95
2023/07/18 03:46:36;;;;;;;1.17;1.08;;;;;;;22.69;100.00;100184.53;6125511;23;20721;-94
2023/07/18 03:49:02;;;;;;;0.60;0.60;;;;;;;22.56;100.00;100172.97;6125024;23;20083;-94
2023/07/18 03:51:28;;;;;;;1.30;1.20;;;;;;;22.75;100.00;100209.97;6124230;23;20253;-95
2023/07/18 03:53:53;;;;;;;2.10;0.90;;;;;;;22.65;100.00;100174.72;6125211;23;20013;-95
2023/07/18 03:56:20;;;;;;;1.73;1.42;;;;;;;22.50;100.00;100165.78;6124930;23;20543;-95
2023/07/18 03:58:46;;;;;;;1.75;1.10;;;;;;;22.65;100.00;100183.22;6101671;23;20017;-94
2023/07/18 04:01:12;;;;;;;1.55;1.23;;;;;;;22.88;100.00;100204.56;6122612;23;20022;-94
2023/07/18 04:03:37;;;;;;;1.13;1.00;;;;;;;23.03;100.00;100227.66;6124912;23;20072;-94
2023/07/18 04:06:03;;;;;;;1.23;0.90;;;;;;;23.07;100.00;100216.84;6100039;23;20013;-94
2023/07/18 04:08:29;;;;;;;0.47;0.47;;;;;;;22.99;100.00;100198.84;6149013;23;20515;-96
2023/07/18 04:10:58;;;;;;;1.33;0.75;;;;;;;23.08;100.00;100218.38;6099740;23;20006;-95
2023/07/18 04:13:25;;;;;;;1.02;0.88;;;;;;;23.29;100.00;100229.38;6150101;23;20013;-95
2023/07/18 04:15:54;;;;;;;2.65;1.17;;;;;;;23.32;100.00;100236.81;6099604;23;20084;-95
2023/07/18 04:18:20;;;;;;;0.98;0.77;;;;;;;23.20;100.00;100219.88;6124864;23;20036;-95
2023/07/18 04:20:46;;;;;;;1.33;1.02;;;;;;;23.26;100.00;100208.53;6123676;23;20009;-96
2023/07/18 04:23:11;;;;;;;2.15;0.93;;;;;;;23.51;100.00;100249.09;6102384;23;20012;-95
2023/07/18 04:26:02;;;;;;;1.20;1.05;;;;;;;23.49;100.00;100238.31;6103077;23;20321;-95
2023/07/18 04:28:29;;;;;;;0.55;0.55;;;;;;;23.48;100.00;100221.84;6100296;23;20010;-94
2023/07/18 04:30:55;;;;;;;1.80;1.25;;;;;;;23.64;100.00;100254.97;6124413;23;20037;-94
2023/07/18 04:33:21;;;;;;;1.15;1.05;;;;;;;23.69;100.00;100254.94;6149461;23;20037;-96
2023/07/18 04:35:47;;;;;;;0.90;0.82;;;;;;;23.64;100.00;100244.41;6149213;23;20403;-94
2023/07/18 04:38:13;;;;;;;0.90;0.57;;;;;;;23.79;100.00;100274.47;6103692;23;20192;-94
2023/07/18 04:40:40;;;;;;;0.88;0.82;;;;;;;23.57;100.00;100247.03;6125509;23;20024;-95
2023/07/18 04:43:06;;;;;;;1.00;0.90;;;;;;;23.71;100.00;100279.91;6124116;23;20127;-93
2023/07/18 04:45:32;;;;;;;1.45;1.13;;;;;;;23.50;100.00;100275.88;6104577;23;20017;-94
2023/07/18 04:47:58;;;;;;;0.38;0.38;;;;;;;23.48;100.00;100272.81;6110948;23;20027;-93
2023/07/18 04:50:23;;;;;;;1.05;1.05;;;;;;;23.65;100.00;100288.44;6134584;23;20030;-96
2023/07/18 04:52:51;;;;;;;1.02;1.02;;;;;;;23.33;100.00;100233.47;6131632;23;20072;-94
2023/07/18 04:55:18;;;;;;;1.25;1.15;;;;;;;23.29;100.00;100235.03;6107323;23;20459;-94
2023/07/18 04:57:43;;;;;;;0.70;0.70;;;;;;;23.24;100.00;100231.69;6104626;23;20044;-96
2023/07/18 05:00:10;;;;;;;1.05;1.05;;;;;;;23.43;100.00;100248.13;6131560;23;20431;-96
2023/07/18 05:02:36;;;;;;;1.20;0.95;;;;;;;23.38;100.00;100237.53;6134190;23;20002;-95
2023/07/18 05:05:02;;;;;;;1.20;0.95;;;;;;;23.33;100.00;100221.38;6109660;23;20009;-96
2023/07/18 05:07:28;;;;;;;1.33;1.23;;;;;;;23.38;100.00;100234.72;6136101;23;20021;-96
2023/07/18 05:09:53;;;;;;;0.80;0.68;;;;;;;23.49;100.00;100246.03;6136463;23;19998;-96
2023/07/18 05:12:19;;;;;;;2.55;1.38;;;;;;;23.57;100.00;100264.03;6112304;23;20021;-95
2023/07/18 05:14:45;;;;;;;0.45;0.45;;;;;;;23.79;100.00;100297.88;6140771;23;20092;-95
2023/07/18 05:17:10;;;;;;;0.63;0.63;;;;;;;23.79;100.00;100295.06;6137513;23;20017;-95
2023/07/18 05:19:36;;;;;;;2.03;0.85;;;;;;;23.87;100.00;100286.78;6135068;23;20013;-95
2023/07/18 05:22:02;;;;;;;0.90;0.90;;;;;;;23.96;100.00;100304.25;6107609;23;20005;-96
2023/07/18 05:24:30;;;;;;;1.75;0.50;;;;;;;24.20;100.00;100319.84;6110961;23;20025;-96
2023/07/18 05:26:56;;;;;;;1.30;0.88;;;;;;;24.11;100.00;100307.50;6132719;23;20313;-96
2023/07/18 05:29:22;;;;;;;0.60;0.55;;;;;;;24.28;100.00;100315.16;6105726;23;20029;-95
2023/07/18 05:31:47;;;;;;;1.15;0.82;;;;;;;24.45;100.00;100319.41;6104325;23;20013;-95
2023/07/18 05:34:13;;;;;;;3.90;1.45;;;;;;;24.51;100.00;100322.19;6130873;23;20019;-96
2023/07/18 05:36:38;;;;;;;0.50;0.50;;;;;;;24.49;100.00;100307.78;6128425;23;20715;-96
2023/07/18 05:39:04;;;;;;;0.80;0.80;;;;;;;24.41;100.00;100286.97;6102883;23;20017;-95
2023/07/18 05:41:29;;;;;;;3.88;0.82;;;;;;;24.55;100.00;100300.78;6102545;23;20313;-96
2023/07/18 05:43:56;;;;;;;0.52;0.50;;;;;;;24.37;100.00;100269.47;6132048;23;20021;-96
2023/07/18 05:46:22;;;;;;;0.88;0.68;;;;;;;24.63;100.00;100305.91;6108224;23;20049;-95
2023/07/18 06:41:28;;;;;;;1.42;1.30;;;;;;;26.86;76.84;100296.91;6132985;22;1751696;-96
2023/07/18 06:44:08;;;;;;;1.15;1.05;;;;;;;27.00;73.08;100296.94;6137613;23;20009;-96
2023/07/18 06:46:36;;;;;;;0.32;0.32;;;;;;;27.44;67.95;100335.97;6163739;23;20012;-96
2023/07/18 06:49:03;;;;;;;1.10;1.00;;;;;;;27.50;67.10;100322.38;6183833;23;20051;-96
2023/07/18 06:51:36;;;;;;;1.00;0.90;;;;;;;27.69;66.19;100340.16;6134154;23;20028;-96
2023/07/18 06:54:05;;;;;;;0.82;0.82;;;;;;;27.60;64.37;100314.16;6132143;23;20036;-96
2023/07/18 06:56:39;;;;;;;0.75;0.63;;;;;;;27.66;64.44;100329.81;6112677;23;20379;-96
2023/07/18 06:59:06;;;;;;;1.13;1.00;;;;;;;27.48;65.75;100290.84;6109973;23;20068;-96
2023/07/18 07:01:35;;;;;;;0.82;0.75;;;;;;;27.51;64.02;100289.75;6102713;23;20069;-96
2023/07/18 07:04:02;;;;;;;0.77;0.65;;;;;;;27.74;60.83;100310.75;6098576;23;20041;-95
2023/07/18 07:06:32;;;;;;;0.70;0.70;;;;;;;27.82;61.00;100302.31;6119091;23;20036;-96
2023/07/18 07:09:01;;;;;;;0.82;0.82;;;;;;;28.10;54.78;100327.41;6116778;23;20018;-96
2023/07/18 07:11:27;;;;;;;1.45;0.85;;;;;;;28.21;56.28;100313.66;6095116;23;20021;-96
2023/07/18 07:13:53;;;;;;;0.63;0.60;;;;;;;28.38;54.87;100315.34;6091983;23;20001;-96
2023/07/18 07:16:19;;;;;;;1.08;1.05;;;;;;;28.44;54.80;100304.53;6091878;23;20021;-96
2023/07/18 07:18:49;;;;;;;1.10;0.65;;;;;;;28.56;55.80;100300.88;6090146;23;20113;-96
2023/07/18 07:21:15;;;;;;;1.10;0.75;;;;;;;28.81;56.73;100303.41;6092976;23;20430;-96
2023/07/18 07:23:41;;;;;;;0.68;0.68;;;;;;;28.98;52.02;100312.31;6092872;23;20040;-96
2023/07/18 07:26:07;;;;;;;0.52;0.50;;;;;;;29.20;50.31;100300.28;6091378;23;20097;-96
2023/07/18 07:28:35;;;;;;;1.42;1.20;;;;;;;29.33;47.44;100308.00;6090706;23;20017;-96
2023/07/18 07:31:03;;;;;;;1.30;0.73;;;;;;;29.45;47.61;100310.00;6091503;23;20010;-96
2023/07/18 07:33:29;;;;;;;0.60;0.60;;;;;;;29.75;42.61;100342.94;6100753;23;20422;-96
2023/07/18 07:36:01;;;;;;;1.60;1.27;;;;;;;29.44;43.00;100317.03;6105010;23;20009;-96
2023/07/18 07:38:30;;;;;;;0.50;0.50;;;;;;;29.53;43.24;100310.03;6128814;23;20021;-96
2023/07/18 07:50:05;;;;;;;0.75;0.75;;;;;;;29.95;43.06;100325.72;6200250;23;20004;-95
2023/07/18 07:52:33;;;;;;;0.75;0.75;;;;;;;29.99;42.80;100333.94;6164063;23;20028;-95
2023/07/18 07:54:59;;;;;;;0.88;0.85;;;;;;;30.03;42.29;100335.09;6163882;23;20351;-95
2023/07/18 07:57:28;;;;;;;4.63;1.42;;;;;;;30.09;42.46;100317.75;6164754;23;20037;-96
2023/07/18 08:06:40;;;;;;;0.50;0.50;;;;;;;30.45;41.81;100332.75;6122213;23;20454;-95
2023/07/18 08:09:55;;;;;;;0.98;0.70;;;;;;;30.54;41.52;100308.53;6169487;23;20095;-96
2023/07/18 08:12:26;;;;;;;0.85;0.60;;;;;;;30.87;40.46;100347.53;6166134;23;20048;-95
2023/07/18 08:14:53;;;;;;;0.50;0.50;;;;;;;30.85;39.23;100326.53;6138431;23;20020;-95
2023/07/18 08:17:18;;;;;;;1.75;0.55;;;;;;;30.97;39.54;100321.94;6164508;23;20017;-94
2023/07/18 08:19:44;;;;;;;0.40;0.40;;;;;;;30.90;39.00;100322.69;6162974;23;20461;-94
2023/07/18 08:22:10;;;;;;;1.27;1.17;;;;;;;31.06;38.20;100329.22;6139506;23;20015;-94
2023/07/18 08:24:36;;;;;;;1.75;1.17;;;;;;;31.13;38.54;100326.34;6138083;23;20013;-95
2023/07/18 08:27:02;;;;;;;1.23;0.88;;;;;;;31.37;37.95;100325.75;6138537;23;20019;-95
2023/07/18 08:30:32;;;;;;;;;;;;;;;;;;;;;
2023/07/18 08:38:21;;;;;;;0.68;0.68;;;;;;;31.66;37.43;100316.91;6090298;23;20523;-94
2023/07/18 08:40:58;;;;;;;0.85;0.85;;;;;;;32.00;36.97;100340.09;6096302;23;20020;-96
2023/07/18 08:43:24;;;;;;;0.90;0.85;;;;;;;32.06;36.83;100345.63;6162570;23;20040;-95
2023/07/18 08:45:51;;;;;;;0.80;0.80;;;;;;;32.21;35.93;100331.25;6139148;23;20450;-95
2023/07/18 08:48:17;;;;;;;2.28;1.10;;;;;;;32.33;35.76;100343.81;6163819;23;20009;-95
2023/07/18 08:50:43;;;;;;;0.65;0.65;;;;;;;32.32;35.05;100345.16;6157337;23;20023;-95
2023/07/18 08:53:09;;;;;;;0.80;0.80;;;;;;;32.21;34.84;100326.28;6187315;23;20012;-95
2023/07/18 08:55:36;;;;;;;0.65;0.65;;;;;;;32.17;34.66;100320.16;6162763;23;20011;-95
2023/07/18 08:58:08;;;;;;;0.88;0.88;;;;;;;32.15;34.60;100317.09;6165662;23;20019;-95
2023/07/18 09:00:42;;;;;;;0.75;0.75;;;;;;;32.26;34.76;100316.69;6165931;23;20016;-95
2023/07/18 09:03:08;;;;;;;1.33;0.98;;;;;;;32.23;34.91;100322.81;6164131;23;20013;-95
2023/07/18 09:05:37;;;;;;;1.10;0.82;;;;;;;32.50;35.12;100358.25;6164557;23;20016;-95
2023/07/18 09:08:05;;;;;;;0.80;0.80;;;;;;;32.42;35.15;100328.84;6163738;23;20020;-95
2023/07/18 09:10:31;;;;;;;0.70;0.70;;;;;;;32.77;35.77;100332.63;6161701;23;20025;-95
2023/07/18 09:13:04;;;;;;;1.25;1.15;;;;;;;32.56;35.06;100332.16;6162178;23;20015;-95
2023/07/18 09:15:35;;;;;;;0.90;0.90;;;;;;;32.64;34.77;100336.56;6187044;23;20019;-95
2023/07/18 09:18:06;;;;;;;1.25;1.15;;;;;;;32.98;34.70;100330.16;6162900;23;20017;-96
2023/07/18 09:20:35;;;;;;;0.50;0.50;;;;;;;32.95;34.36;100325.59;6163891;23;20059;-96
2023/07/18 09:23:11;;;;;;;1.27;1.20;;;;;;;33.16;34.49;100323.13;6164275;23;20149;-96
2023/07/18 09:25:40;;;;;;;1.30;0.95;;;;;;;33.15;34.38;100324.50;6165336;23;20001;-95
2023/07/18 09:28:11;;;;;;;0.85;0.85;;;;;;;33.09;32.21;100306.69;6188787;23;20454;-94
2023/07/18 09:30:40;;;;;;;0.45;0.45;;;;;;;33.29;32.60;100305.56;6165306;23;20115;-95
2023/07/18 09:33:06;;;;;;;0.52;0.52;;;;;;;33.48;31.49;100309.97;6162954;23;20470;-95
2023/07/18 09:35:50;;;;;;;0.77;0.63;;;;;;;33.48;31.76;100309.97;6187035;23;20050;-95
2023/07/18 09:38:16;;;;;;;0.88;0.82;;;;;;;33.56;30.64;100308.56;6162886;23;20016;-94
2023/07/18 09:41:06;;;;;;;0.80;0.80;;;;;;;33.75;30.75;100310.84;6187241;23;20015;-94
2023/07/18 09:47:41;;;;;;;0.95;0.95;;;;;;;33.18;30.69;100308.94;6212579;23;20091;-94
2023/07/18 09:50:48;;;;;;;0.50;0.43;;;;;;;33.27;30.68;100307.50;6174827;23;20021;-94
2023/07/18 09:53:42;;;;;;;1.90;1.42;;;;;;;33.39;30.80;100290.53;6191187;23;20021;-95
2023/07/18 09:56:14;;;;;;;0.43;0.43;;;;;;;33.19;31.49;100304.72;6158580;23;20012;-95
2023/07/18 09:59:06;;;;;;;0.47;0.47;;;;;;;33.26;32.21;100297.38;6136012;23;20009;-94
2023/07/18 10:02:10;;;;;;;0.80;0.80;;;;;;;33.20;32.64;100297.59;6142140;23;20597;-94
2023/07/18 10:05:17;;;;;;;1.45;1.05;;;;;;;33.14;32.50;100299.97;6140178;23;20036;-95
2023/07/18 10:08:13;;;;;;;0.73;0.73;;;;;;;33.28;32.40;100283.16;6134592;23;20017;-95
2023/07/18 10:11:24;;;;;;;1.33;1.15;;;;;;;33.25;30.93;100259.22;6104022;23;20021;-95
2023/07/18 10:13:55;;;;;;;0.88;0.88;;;;;;;33.25;32.23;100287.97;6104678;23;20398;-94
2023/07/18 10:16:22;;;;;;;1.00;0.98;;;;;;;33.05;32.10;100285.47;6157905;23;20017;-94
2023/07/18 10:18:49;;;;;;;2.88;1.25;;;;;;;32.90;32.59;100266.25;6157549;23;20013;-95
2023/07/18 10:21:32;;;;;;;1.02;1.00;;;;;;;32.83;32.61;100259.25;6155621;23;20430;-95
2023/07/18 10:23:58;;;;;;;;;;;;;;;33.07;32.98;100283.53;6107145;23;20017;-96
2023/07/18 10:26:33;;;;;;;0.35;0.35;;;;;;;32.77;32.89;100255.84;6130942;23;20350;-95
2023/07/18 10:29:05;;;;;;;1.85;1.75;;;;;;;32.90;34.34;100269.13;6108156;23;20141;-95
2023/07/18 10:31:37;;;;;;;;;;;;;;;33.18;34.30;100282.31;6113968;23;20430;-95
2023/07/18 10:34:06;;;;;;;0.82;0.82;;;;;;;33.63;33.58;100281.81;6164014;23;19912;-94
2023/07/18 10:36:32;;;;;;;0.93;0.80;;;;;;;33.47;33.54;100237.31;6188197;23;20059;-96
2023/07/18 10:38:57;;;;;;;1.52;0.80;;;;;;;33.91;33.23;100277.66;6164403;23;20008;-96
2023/07/18 10:41:23;;;;;;;1.25;0.88;;;;;;;33.57;32.40;100248.88;6164107;23;20126;-94
2023/07/18 10:43:48;;;;;;;0.70;0.70;;;;;;;33.70;33.14;100257.97;6164435;23;20000;-95
2023/07/18 10:46:14;;;;;;;1.00;1.00;;;;;;;33.70;32.63;100257.19;6162611;23;20353;-95
2023/07/18 10:48:49;;;;;;;0.95;0.88;;;;;;;33.89;34.25;100257.31;6189647;23;20000;-95
2023/07/18 10:51:15;;;;;;;0.68;0.68;;;;;;;33.80;32.86;100231.38;6164733;23;20378;-95
2023/07/18 10:53:42;;;;;;;1.25;1.17;;;;;;;33.98;32.26;100253.75;6189570;23;20158;-95
2023/07/18 10:56:19;;;;;;;0.77;0.70;;;;;;;33.28;32.27;100235.03;6162264;23;20028;-96
2023/07/18 10:58:44;;;;;;;0.70;0.70;;;;;;;33.07;33.87;100220.31;6164990;23;20107;-95
2023/07/18 11:01:13;;;;;;;0.45;0.45;;;;;;;33.22;32.61;100248.91;6163856;23;20102;-96
2023/07/18 11:03:45;;;;;;;0.60;0.60;;;;;;;33.27;34.41;100204.03;6164393;23;20019;-96
2023/07/18 11:06:11;;;;;;;0.55;0.55;;;;;;;34.12;32.84;100252.03;6164424;23;20390;-96
2023/07/18 11:08:37;;;;;;;1.27;1.05;;;;;;;34.29;32.74;100230.31;6164606;23;20016;-95
2023/07/18 11:11:04;;;;;;;3.03;1.33;;;;;;;34.12;31.25;100222.47;6163043;23;20044;-95
2023/07/18 11:13:40;;;;;;;0.95;0.77;;;;;;;33.89;31.87;100214.16;6189009;23;20016;-95
2023/07/18 11:16:11;;;;;;;0.77;0.77;;;;;;;34.46;31.79;100221.59;6163982;23;20070;-95
2023/07/18 11:18:41;;;;;;;0.32;0.32;;;;;;;34.19;32.51;100238.91;6165101;23;20012;-93
2023/07/18 11:21:07;;;;;;;1.40;0.80;;;;;;;33.83;32.77;100219.44;6163727;23;20009;-94
2023/07/18 11:23:34;;;;;;;0.80;0.80;;;;;;;34.00;32.21;100204.25;6163517;23;20013;-95
2023/07/18 11:26:09;;;;;;;0.50;0.50;;;;;;;33.71;31.98;100204.06;6162543;23;20081;-93
2023/07/18 11:28:36;;;;;;;1.65;1.27;;;;;;;34.01;32.51;100212.25;6189669;23;20016;-94
2023/07/18 11:31:04;;;;;;;1.45;0.88;;;;;;;34.18;32.50;100209.34;6188965;23;20020;-94
2023/07/18 11:33:35;;;;;;;0.60;0.52;;;;;;;34.26;33.15;100208.47;6164606;23;20005;-95
2023/07/18 11:36:10;;;;;;;0.70;0.70;;;;;;;34.00;32.93;100201.38;6166474;23;20492;-96
2023/07/18 11:38:37;;;;;;;1.88;1.30;;;;;;;33.64;32.40;100202.03;6163555;23;20013;-94
2023/07/18 11:41:03;;;;;;;1.20;1.10;;;;;;;33.81;33.05;100186.88;6162991;23;20007;-94
2023/07/18 11:43:47;;;;;;;;;;;;;;;;;;;;;
2023/07/18 11:46:13;;;;;;;0.43;0.43;;;;;;;34.85;31.80;100193.69;6194750;23;20005;-95
2023/07/18 11:48:55;;;;;;;0.68;0.65;;;;;;;34.88;32.31;100178.81;6164615;23;20130;-94
2023/07/18 11:51:21;;;;;;;0.60;0.60;;;;;;;34.93;31.42;100188.53;6188615;23;20004;-95
2023/07/18 11:53:54;;;;;;;1.95;1.50;;;;;;;34.70;31.30;100177.41;6167046;23;20043;-95
2023/07/18 11:56:40;;;;;;;1.90;0.70;;;;;;;34.32;31.39;100171.53;6213692;23;20017;-94
2023/07/18 11:59:09;;;;;;;0.98;0.98;;;;;;;34.35;32.39;100167.44;6163923;23;20023;-95
2023/07/18 12:01:40;;;;;;;1.55;0.95;;;;;;;34.13;31.58;100175.06;6164826;23;20055;-95
2023/07/18 12:04:12;;;;;;;2.38;1.05;;;;;;;33.41;33.01;100161.28;6162836;23;20021;-95
2023/07/18 12:06:43;;;;;;;0.75;0.75;;;;;;;33.37;32.33;100143.72;6163983;23;20430;-94
2023/07/18 12:09:12;;;;;;;0.98;0.90;;;;;;;33.28;32.22;100171.78;6163194;23;20095;-95
2023/07/18 12:11:40;;;;;;;0.50;0.50;;;;;;;33.40;34.03;100159.78;6163476;23;20009;-95
2023/07/18 12:14:09;;;;;;;1.27;1.17;;;;;;;33.89;33.34;100150.13;6164564;23;20494;-95
2023/07/18 12:16:39;;;;;;;1.52;0.90;;;;;;;34.32;32.97;100160.00;6163851;23;20012;-96
2023/07/18 12:19:09;;;;;;;0.95;0.93;;;;;;;34.70;32.13;100137.06;6165543;23;20051;-94
2023/07/18 12:21:37;;;;;;;2.33;0.77;;;;;;;34.61;32.74;100146.44;6165926;23;20087;-96
2023/07/18 12:24:04;;;;;;;1.83;1.58;;;;;;;34.71;31.90;100153.00;6164782;23;20016;-96
2023/07/18 12:26:31;;;;;;;0.52;0.52;;;;;;;34.66;31.36;100124.50;6164421;23;20009;-94
2023/07/18 12:28:57;;;;;;;1.10;0.90;;;;;;;34.86;31.25;100141.19;6164908;23;20016;-95
2023/07/18 12:31:23;;;;;;;0.63;0.63;;;;;;;34.82;31.69;100132.22;6189313;23;20032;-95
2023/07/18 12:33:48;;;;;;;1.10;1.02;;;;;;;34.97;31.40;100137.72;6189067;23;20386;-93
2023/07/18 12:36:14;;;;;;;0.68;0.68;;;;;;;34.59;31.28;100134.75;6162691;23;20008;-95
2023/07/18 12:38:40;;;;;;;1.00;0.90;;;;;;;34.17;32.00;100127.22;6163130;23;20022;-95
2023/07/18 12:41:06;;;;;;;0.77;0.65;;;;;;;34.06;31.96;100132.75;6187371;23;20021;-95
2023/07/18 12:43:35;;;;;;;0.95;0.90;;;;;;;33.90;32.81;100134.34;6164888;23;20012;-95
2023/07/18 12:46:02;;;;;;;1.35;1.13;;;;;;;34.13;32.47;100135.50;6163592;23;20004;-94
2023/07/18 12:48:31;;;;;;;1.17;1.00;;;;;;;33.67;32.26;100128.94;6161347;23;20017;-94
2023/07/18 12:50:56;;;;;;;0.75;0.75;;;;;;;33.80;32.80;100110.53;6166432;23;20092;-95
2023/07/18 12:53:22;;;;;;;1.42;0.80;;;;;;;34.26;32.46;100104.81;6163495;23;20076;-95